createdAt,value
2022-12-04T00:00:28.729Z,2.28
2022-12-04T00:02:55.775Z,2.17
2022-12-04T00:05:22.709Z,2.10
2022-12-04T00:07:49.639Z,2.30
2022-12-04T00:10:16.657Z,2.40
2022-12-04T00:12:43.473Z,2.58
2022-12-04T00:15:27.004Z,2.35
2022-12-04T00:17:54.575Z,2.77
2022-12-04T00:20:21.706Z,2.80
2022-12-04T00:22:48.536Z,2.58
2022-12-04T00:25:15.424Z,2.55
2022-12-04T00:27:42.255Z,2.38
2022-12-04T00:30:09.498Z,2.50
2022-12-04T00:32:36.446Z,2.78
2022-12-04T00:35:03.677Z,2.50
2022-12-04T00:37:30.723Z,2.55
2022-12-04T00:39:57.810Z,3.05
2022-12-04T00:42:24.727Z,3.00
2022-12-04T00:44:51.555Z,2.60
2022-12-04T00:47:18.567Z,2.83
2022-12-04T00:49:45.504Z,2.90
2022-12-04T00:52:12.538Z,2.80
2022-12-04T00:54:39.357Z,3.03
2022-12-04T00:57:06.174Z,3.00
2022-12-04T00:59:33.077Z,3.28
2022-12-04T01:01:59.940Z,3.50
2022-12-04T01:04:26.798Z,3.50
2022-12-04T01:06:53.695Z,3.10
2022-12-04T01:09:20.582Z,2.90
2022-12-04T01:11:47.599Z,3.05
2022-12-04T01:14:14.511Z,3.17
2022-12-04T01:16:41.512Z,2.88
2022-12-04T01:19:12.287Z,2.80
2022-12-04T01:21:39.966Z,3.05
2022-12-04T01:24:07.468Z,3.33
2022-12-04T01:26:34.327Z,3.05
2022-12-04T01:29:02.071Z,3.53
2022-12-04T01:31:28.912Z,3.30
2022-12-04T01:33:56.211Z,3.20
2022-12-04T01:36:26.777Z,3.28
2022-12-04T01:38:54.451Z,3.20
2022-12-04T01:41:26.192Z,3.40
2022-12-04T01:44:11.222Z,3.10
2022-12-04T01:46:39.007Z,3.50
2022-12-04T01:49:09.242Z,3.30
2022-12-04T01:51:41.164Z,3.00
2022-12-04T01:54:13.894Z,3.17
2022-12-04T01:56:55.248Z,3.27
2022-12-04T01:59:28.027Z,3.10
2022-12-04T02:02:03.910Z,2.80
2022-12-04T02:04:31.912Z,2.90
2022-12-04T02:06:58.744Z,3.28
2022-12-04T02:09:27.030Z,3.03
2022-12-04T02:12:06.363Z,2.72
2022-12-04T02:15:00.932Z,2.63
2022-12-04T02:17:41.973Z,2.55
2022-12-04T02:20:33.199Z,2.33
2022-12-04T02:23:18.784Z,2.60
2022-12-04T02:25:54.339Z,2.30
2022-12-04T02:28:21.135Z,2.53
2022-12-04T02:30:51.256Z,2.50
2022-12-04T02:33:25.846Z,2.50
2022-12-04T02:35:59.708Z,2.60
2022-12-04T02:38:35.858Z,2.47
2022-12-04T02:41:11.629Z,2.35
2022-12-04T02:43:43.796Z,2.50
2022-12-04T02:46:30.864Z,2.67
2022-12-04T02:49:02.215Z,2.43
2022-12-04T02:51:34.955Z,2.60
2022-12-04T02:54:09.128Z,2.60
2022-12-04T02:56:41.320Z,2.40
2022-12-04T02:59:13.698Z,2.60
2022-12-04T03:01:46.452Z,2.43
2022-12-04T03:04:16.170Z,2.70
2022-12-04T03:06:46.450Z,2.60
2022-12-04T03:09:30.118Z,2.30
2022-12-04T03:12:19.950Z,2.60
2022-12-04T03:14:55.314Z,2.40
2022-12-04T03:17:31.915Z,2.65
2022-12-04T03:20:03.787Z,2.60
2022-12-04T03:22:34.052Z,2.70
2022-12-04T03:25:03.573Z,2.58
2022-12-04T03:27:45.297Z,2.77
2022-12-04T03:30:17.338Z,2.40
2022-12-04T03:32:44.290Z,2.60
2022-12-04T03:35:21.821Z,2.55
2022-12-04T03:38:07.794Z,2.53
2022-12-04T03:40:44.391Z,2.80
2022-12-04T03:43:20.422Z,2.90
2022-12-04T03:45:55.595Z,2.60
2022-12-04T03:48:53.563Z,2.80
2022-12-04T03:51:52.356Z,2.88
2022-12-04T03:54:29.549Z,2.70
2022-12-04T03:57:02.385Z,2.85
2022-12-04T03:59:51.139Z,3.17
2022-12-04T04:02:26.358Z,3.03
2022-12-04T04:04:58.100Z,2.92
2022-12-04T04:07:35.302Z,2.90
2022-12-04T04:10:11.577Z,2.90
2022-12-04T04:12:47.930Z,3.10
2022-12-04T04:15:17.688Z,3.40
2022-12-04T04:17:45.927Z,3.30
2022-12-04T04:20:18.870Z,3.40
2022-12-04T04:22:54.586Z,3.17
2022-12-04T04:25:26.928Z,3.50
2022-12-04T04:27:56.538Z,3.50
2022-12-04T04:30:24.394Z,3.67
2022-12-04T04:33:17.760Z,3.80
2022-12-04T04:35:53.117Z,4.30
2022-12-04T04:38:35.243Z,7.75
2022-12-04T04:41:27.499Z,5.18
2022-12-04T04:44:06.295Z,3.75
2022-12-04T04:46:38.189Z,3.50
2022-12-04T04:49:09.228Z,4.03
2022-12-04T04:51:37.274Z,3.20
2022-12-04T04:54:11.357Z,3.33
2022-12-04T04:56:43.346Z,3.90
2022-12-04T04:59:11.075Z,3.50
2022-12-04T05:01:40.378Z,3.63
2022-12-04T05:04:08.243Z,3.67
2022-12-04T05:06:37.940Z,3.67
2022-12-04T05:09:05.092Z,3.78
2022-12-04T05:11:32.545Z,3.67
2022-12-04T05:13:59.423Z,3.20
2022-12-04T05:16:26.477Z,3.47
2022-12-04T05:18:53.255Z,3.45
2022-12-04T05:21:23.186Z,3.70
2022-12-04T05:23:53.673Z,3.73
2022-12-04T05:26:20.585Z,3.60
2022-12-04T05:28:47.307Z,3.60
2022-12-04T05:31:14.291Z,3.80
2022-12-04T05:33:44.326Z,3.75
2022-12-04T05:36:13.749Z,3.73
2022-12-04T05:38:40.901Z,3.80
2022-12-04T05:41:07.857Z,3.95
2022-12-04T05:43:35.887Z,3.70
2022-12-04T05:46:07.494Z,3.90
2022-12-04T05:48:35.805Z,4.00
2022-12-04T05:51:10.869Z,5.30
2022-12-04T05:53:38.305Z,4.45
2022-12-04T05:56:07.798Z,4.50
2022-12-04T05:58:36.841Z,4.20
2022-12-04T06:13:54.146Z,4.97
2022-12-04T06:16:27.978Z,4.60
2022-12-04T06:19:00.381Z,4.80
2022-12-04T06:21:31.049Z,4.85
2022-12-04T06:23:58.310Z,5.00
2022-12-04T06:26:26.144Z,4.95
2022-12-04T06:28:54.563Z,4.43
2022-12-04T06:31:21.537Z,4.27
2022-12-04T06:33:48.789Z,4.43
2022-12-04T06:36:18.611Z,4.47
2022-12-04T06:38:45.619Z,4.40
2022-12-04T06:41:14.288Z,4.70
2022-12-04T06:43:43.840Z,4.60
2022-12-04T06:46:13.558Z,4.80
2022-12-04T06:48:41.194Z,4.72
2022-12-04T06:51:11.257Z,4.40
2022-12-04T06:53:38.820Z,4.97
2022-12-04T06:56:08.661Z,4.40
2022-12-04T06:58:36.111Z,4.65
2022-12-04T07:01:15.364Z,5.63
2022-12-04T07:03:46.329Z,5.28
2022-12-04T07:06:29.895Z,4.90
2022-12-04T07:09:09.314Z,4.77
2022-12-04T07:11:38.623Z,4.60
2022-12-04T07:14:08.153Z,5.30
2022-12-04T07:16:40.315Z,5.35
2022-12-04T07:19:18.467Z,5.30
2022-12-04T07:21:45.242Z,5.57
2022-12-04T07:24:16.281Z,5.07
2022-12-04T07:26:43.281Z,6.22
2022-12-04T07:29:10.054Z,6.25
2022-12-04T07:31:36.875Z,6.15
2022-12-04T07:34:03.842Z,5.77
2022-12-04T07:36:30.837Z,6.15
2022-12-04T07:38:57.722Z,6.30
2022-12-04T07:41:24.641Z,6.53
2022-12-04T07:43:51.473Z,6.65
2022-12-04T07:46:21.553Z,6.37
2022-12-04T07:48:48.682Z,6.90
2022-12-04T07:51:18.730Z,6.57
2022-12-04T07:53:46.059Z,6.40
2022-12-04T07:56:13.824Z,6.32
2022-12-04T07:58:41.248Z,6.57
2022-12-04T08:01:13.941Z,6.30
2022-12-04T08:03:47.669Z,6.60
2022-12-04T08:06:20.350Z,6.47
2022-12-04T08:08:47.696Z,7.13
2022-12-04T08:11:18.742Z,6.80
2022-12-04T08:13:46.297Z,6.50
2022-12-04T08:16:13.891Z,6.90
2022-12-04T08:18:41.677Z,6.63
2022-12-04T08:21:13.848Z,6.80
2022-12-04T08:23:42.974Z,7.03
2022-12-04T08:26:11.226Z,7.30
2022-12-04T08:28:38.884Z,7.45
2022-12-04T08:31:14.162Z,7.53
2022-12-04T08:33:42.558Z,8.60
2022-12-04T08:36:12.075Z,7.67
2022-12-04T08:38:39.195Z,8.10
2022-12-04T08:41:08.169Z,8.77
2022-12-04T08:43:35.083Z,8.13
2022-12-04T08:46:04.715Z,8.18
2022-12-04T08:48:32.279Z,8.77
2022-12-04T08:50:59.336Z,7.75
2022-12-04T08:53:26.244Z,8.80
2022-12-04T08:55:53.588Z,8.40
2022-12-04T08:58:20.870Z,8.65
2022-12-04T09:00:47.771Z,8.47
2022-12-04T09:03:19.733Z,8.82
2022-12-04T09:05:47.298Z,9.00
2022-12-04T09:08:16.890Z,9.07
2022-12-04T09:10:44.220Z,8.93
2022-12-04T09:13:10.996Z,9.33
2022-12-04T09:15:41.510Z,9.20
2022-12-04T09:18:09.475Z,9.20
2022-12-04T09:20:36.771Z,9.32
2022-12-04T09:23:05.428Z,9.00
2022-12-04T09:25:35.938Z,9.73
2022-12-04T09:28:02.775Z,9.25
2022-12-04T09:30:29.568Z,7.95
2022-12-04T09:32:56.585Z,8.43
2022-12-04T09:35:24.040Z,8.50
2022-12-04T09:37:50.892Z,8.70
2022-12-04T09:40:37.745Z,9.00
2022-12-04T09:43:18.265Z,8.85
2022-12-04T09:45:53.672Z,7.90
2022-12-04T09:48:22.593Z,7.90
2022-12-04T09:50:50.700Z,8.00
2022-12-04T09:53:23.532Z,7.57
2022-12-04T09:56:04.555Z,7.28
2022-12-04T09:58:53.996Z,7.63
2022-12-04T10:01:42.114Z,7.35
2022-12-04T10:04:11.901Z,7.50
2022-12-04T10:06:49.993Z,7.43
2022-12-04T10:09:22.784Z,7.65
2022-12-04T10:12:04.774Z,8.55
2022-12-04T10:14:48.521Z,7.53
2022-12-04T10:17:36.632Z,8.07
2022-12-04T10:20:31.372Z,7.30
2022-12-04T10:23:17.430Z,7.38
2022-12-04T10:25:44.277Z,7.45
2022-12-04T10:28:16.766Z,7.07
2022-12-04T10:30:45.802Z,7.70
2022-12-04T10:33:22.108Z,7.57
2022-12-04T10:35:51.784Z,7.20
2022-12-04T10:38:55.833Z,7.10
2022-12-04T10:41:47.853Z,7.38
2022-12-04T10:44:17.183Z,7.50
2022-12-04T10:46:46.188Z,8.27
2022-12-04T10:49:32.072Z,7.22
2022-12-04T10:52:02.036Z,7.72
2022-12-04T10:54:39.868Z,7.63
2022-12-04T10:57:14.648Z,7.40
2022-12-04T10:59:56.268Z,7.63
2022-12-04T11:02:32.464Z,7.70
2022-12-04T11:05:01.814Z,7.38
2022-12-04T11:07:32.391Z,6.85
2022-12-04T11:10:04.362Z,7.90
2022-12-04T11:12:32.309Z,8.85
2022-12-04T11:15:08.719Z,8.52
2022-12-04T11:17:38.028Z,7.70
2022-12-04T11:20:32.901Z,6.97
2022-12-04T11:23:00.251Z,8.17
2022-12-04T11:25:30.922Z,6.57
2022-12-04T11:28:01.330Z,6.85
2022-12-04T11:30:41.572Z,8.02
2022-12-04T11:33:19.131Z,8.52
2022-12-04T11:35:54.285Z,7.40
2022-12-04T11:38:26.595Z,7.50
2022-12-04T11:40:57.004Z,7.35
2022-12-04T11:43:29.617Z,7.00
2022-12-04T11:46:06.259Z,7.78
2022-12-04T11:48:44.057Z,7.80
2022-12-04T11:51:43.079Z,7.20
2022-12-04T11:54:34.606Z,7.50
2022-12-04T11:57:21.766Z,6.78
2022-12-04T12:00:10.755Z,7.90
2022-12-04T12:03:05.315Z,8.30
2022-12-04T12:06:01.268Z,8.10
2022-12-04T12:08:33.653Z,7.25
2022-12-04T12:11:31.434Z,6.40
2022-12-04T12:14:01.113Z,6.45
2022-12-04T12:16:40.163Z,7.57
2022-12-04T12:19:44.241Z,6.50
2022-12-04T12:22:28.896Z,8.50
2022-12-04T12:25:11.073Z,8.60
2022-12-04T12:28:10.135Z,7.85
2022-12-04T12:31:06.219Z,9.57
2022-12-04T12:33:39.696Z,12.10
2022-12-04T12:36:10.636Z,18.13
2022-12-04T12:39:18.280Z,17.25
2022-12-04T12:41:55.791Z,12.52
2022-12-04T12:44:52.880Z,8.13
2022-12-04T12:47:23.626Z,6.85
2022-12-04T12:49:55.597Z,9.38
2022-12-04T12:53:02.172Z,7.80
2022-12-04T12:55:44.836Z,7.35
2022-12-04T12:58:14.393Z,8.27
2022-12-04T13:00:51.413Z,9.57
2022-12-04T13:03:41.187Z,7.80
2022-12-04T13:06:14.715Z,9.27
2022-12-04T13:08:49.542Z,6.88
2022-12-04T13:11:22.974Z,6.90
2022-12-04T13:13:56.626Z,7.03
2022-12-04T13:16:35.295Z,7.10
2022-12-04T13:19:20.130Z,5.78
2022-12-04T13:22:17.996Z,6.25
2022-12-04T13:25:18.547Z,5.67
2022-12-04T13:28:16.603Z,5.07
2022-12-04T13:31:00.941Z,5.38
2022-12-04T13:33:43.039Z,6.45
2022-12-04T13:36:38.668Z,5.78
2022-12-04T13:39:08.503Z,6.00
2022-12-04T13:41:38.597Z,5.55
2022-12-04T13:44:19.975Z,5.38
2022-12-04T13:46:55.832Z,5.75
2022-12-04T13:49:26.485Z,6.30
2022-12-04T13:51:54.859Z,6.60
2022-12-04T13:54:33.794Z,5.70
2022-12-04T13:57:15.713Z,6.57
2022-12-04T13:59:42.856Z,6.82
2022-12-04T14:02:35.717Z,6.68
2022-12-04T14:05:10.184Z,6.63
2022-12-04T14:07:39.668Z,6.82
2022-12-04T14:10:15.732Z,7.72
2022-12-04T14:12:51.947Z,6.50
2022-12-04T14:15:24.658Z,6.50
2022-12-04T14:18:02.316Z,6.57
2022-12-04T14:20:31.796Z,6.55
2022-12-04T14:23:26.214Z,6.90
2022-12-04T14:25:55.009Z,6.68
2022-12-04T14:28:24.235Z,6.78
2022-12-04T14:31:31.614Z,6.90
2022-12-04T14:34:05.824Z,6.57
2022-12-04T14:36:44.209Z,7.97
2022-12-04T14:39:32.319Z,7.00
2022-12-04T14:42:26.049Z,6.88
2022-12-04T14:44:59.306Z,7.40
2022-12-04T14:48:04.593Z,7.55
2022-12-04T14:50:43.530Z,8.18
2022-12-04T14:53:27.133Z,7.57
2022-12-04T14:56:13.965Z,7.13
2022-12-04T14:58:40.931Z,7.83
2022-12-04T15:01:28.647Z,8.77
2022-12-04T15:04:01.549Z,7.72
2022-12-04T15:06:33.356Z,7.80
2022-12-04T15:09:03.568Z,8.60
2022-12-04T15:11:31.360Z,8.40
2022-12-04T15:14:14.086Z,7.63
2022-12-04T15:16:41.163Z,8.13
2022-12-04T15:19:18.346Z,7.65
2022-12-04T15:21:45.545Z,8.30
2022-12-04T15:24:19.446Z,7.43
2022-12-04T15:26:48.554Z,8.18
2022-12-04T15:29:23.135Z,7.45
2022-12-04T15:31:55.309Z,8.27
2022-12-04T15:34:25.977Z,8.00
2022-12-04T15:37:02.855Z,7.50
2022-12-04T15:39:33.061Z,7.85
2022-12-04T15:42:18.040Z,7.85
2022-12-04T15:44:54.520Z,7.28
2022-12-04T15:47:27.557Z,8.20
2022-12-04T15:49:54.785Z,7.17
2022-12-04T15:52:24.240Z,8.30
2022-12-04T15:55:06.675Z,8.10
2022-12-04T15:57:36.655Z,7.85
2022-12-04T16:00:06.819Z,6.63
2022-12-04T16:02:36.797Z,8.97
2022-12-04T16:05:37.022Z,9.80
2022-12-04T16:08:29.047Z,11.00
2022-12-04T16:11:20.931Z,10.00
2022-12-04T16:13:50.621Z,9.18
2022-12-04T16:16:21.800Z,8.57
2022-12-04T16:18:49.059Z,10.25
2022-12-04T16:21:18.739Z,9.80
2022-12-04T16:23:46.287Z,9.63
2022-12-04T16:26:17.972Z,9.75
2022-12-04T16:28:45.089Z,10.57
2022-12-04T16:31:13.542Z,11.02
2022-12-04T16:33:40.986Z,9.77
2022-12-04T16:36:11.064Z,10.00
2022-12-04T16:38:38.084Z,9.60
2022-12-04T16:41:06.131Z,9.93
2022-12-04T16:43:33.252Z,9.32
2022-12-04T16:46:01.591Z,8.38
2022-12-04T16:48:28.899Z,8.32
2022-12-04T16:50:55.993Z,9.43
2022-12-04T16:53:23.016Z,9.17
2022-12-04T16:55:51.847Z,8.82
2022-12-04T16:58:20.117Z,9.20
2022-12-04T17:00:53.940Z,8.00
2022-12-04T17:03:27.270Z,8.23
2022-12-04T17:05:54.335Z,6.50
2022-12-04T17:08:21.922Z,8.50
2022-12-04T17:10:48.805Z,8.85
2022-12-04T17:13:18.546Z,8.80
2022-12-04T17:15:45.502Z,8.88
2022-12-04T17:18:17.675Z,9.80
2022-12-04T17:20:47.360Z,9.18
2022-12-04T17:23:19.881Z,9.00
2022-12-04T17:25:46.877Z,8.40
2022-12-04T17:28:14.074Z,8.57
2022-12-04T17:30:45.040Z,9.67
2022-12-04T17:33:11.868Z,10.23
2022-12-04T17:35:42.429Z,9.93
2022-12-04T17:38:09.424Z,9.50
2022-12-04T17:40:36.350Z,9.50
2022-12-04T17:43:03.299Z,9.23
2022-12-04T17:45:30.356Z,9.35
2022-12-04T17:47:57.180Z,9.50
2022-12-04T17:50:23.951Z,9.35
2022-12-04T17:52:50.798Z,9.35
2022-12-04T17:55:17.691Z,9.97
2022-12-04T17:57:44.694Z,9.43
2022-12-04T18:00:12.017Z,10.00
2022-12-04T18:02:39.006Z,9.15
2022-12-04T18:05:06.014Z,9.00
2022-12-04T18:07:32.939Z,9.30
2022-12-04T18:10:00.264Z,9.05
2022-12-04T18:12:27.464Z,8.48
2022-12-04T18:14:54.266Z,9.25
2022-12-04T18:17:21.029Z,9.18
2022-12-04T18:19:47.782Z,8.80
2022-12-04T18:22:14.726Z,8.57
2022-12-04T18:24:41.487Z,8.13
2022-12-04T18:27:08.455Z,7.43
2022-12-04T18:29:35.294Z,8.52
2022-12-04T18:32:02.341Z,8.63
2022-12-04T18:34:29.365Z,7.55
2022-12-04T18:36:56.210Z,7.50
2022-12-04T18:39:24.667Z,8.95
2022-12-04T18:41:54.173Z,8.55
2022-12-04T18:44:21.017Z,8.47
2022-12-04T18:46:48.041Z,7.43
2022-12-04T18:49:15.048Z,8.07
2022-12-04T18:51:48.586Z,8.30
2022-12-04T18:54:21.553Z,7.05
2022-12-04T18:56:48.768Z,6.80
2022-12-04T18:59:19.585Z,8.20
2022-12-04T19:01:47.205Z,8.45
2022-12-04T19:04:14.712Z,7.78
2022-12-04T19:06:44.377Z,8.00
2022-12-04T19:09:14.780Z,9.23
2022-12-04T19:11:42.138Z,8.43
2022-12-04T19:14:19.255Z,8.93
2022-12-04T19:16:49.976Z,10.10
2022-12-04T19:19:17.168Z,9.75
2022-12-04T19:21:44.295Z,9.27
2022-12-04T19:24:11.677Z,8.77
2022-12-04T19:26:39.242Z,7.97
2022-12-04T19:29:07.665Z,7.80
2022-12-04T19:31:36.732Z,8.02
2022-12-04T19:34:05.295Z,8.57
2022-12-04T19:36:33.380Z,10.43
2022-12-04T19:39:01.394Z,11.05
2022-12-04T19:41:30.399Z,10.70
2022-12-04T19:43:59.360Z,9.23
2022-12-04T19:46:31.355Z,8.83
2022-12-04T19:49:00.816Z,10.68
2022-12-04T19:51:28.779Z,8.68
2022-12-04T19:53:55.870Z,7.30
2022-12-04T19:56:26.099Z,6.97
2022-12-04T19:58:54.225Z,6.10
2022-12-04T20:01:23.455Z,5.35
2022-12-04T20:03:50.260Z,5.63
2022-12-04T20:06:19.492Z,6.60
2022-12-04T20:08:47.458Z,5.80
2022-12-04T20:11:18.918Z,5.73
2022-12-04T20:13:47.394Z,6.35
2022-12-04T20:16:18.098Z,6.53
2022-12-04T20:18:45.308Z,6.10
2022-12-04T20:21:12.916Z,7.22
2022-12-04T20:23:48.092Z,6.73
2022-12-04T20:26:27.410Z,5.95
2022-12-04T20:28:56.331Z,6.70
2022-12-04T20:31:25.849Z,7.13
2022-12-04T20:33:54.670Z,7.20
2022-12-04T20:36:23.083Z,7.20
2022-12-04T20:38:52.311Z,6.55
2022-12-04T20:41:19.173Z,6.82
2022-12-04T20:43:47.781Z,6.43
2022-12-04T20:46:34.965Z,6.80
2022-12-04T20:49:04.404Z,7.77
2022-12-04T20:51:34.297Z,7.72
2022-12-04T20:54:01.777Z,10.65
2022-12-04T20:56:32.552Z,12.55
2022-12-04T20:59:01.463Z,13.77
2022-12-04T21:01:28.990Z,12.47
2022-12-04T21:03:55.978Z,11.45
2022-12-04T21:06:31.014Z,10.68
2022-12-04T21:09:01.074Z,16.35
2022-12-04T21:11:34.234Z,11.63
2022-12-04T21:14:07.625Z,13.57
2022-12-04T21:16:34.980Z,13.90
2022-12-04T21:19:03.854Z,14.00
2022-12-04T21:21:31.044Z,12.63
2022-12-04T21:23:57.863Z,13.90
2022-12-04T21:26:24.705Z,15.23
2022-12-04T21:28:51.443Z,11.90
2022-12-04T21:31:18.169Z,11.82
2022-12-04T21:33:45.211Z,10.95
2022-12-04T21:36:12.141Z,13.85
2022-12-04T21:38:40.218Z,12.77
2022-12-04T21:41:09.307Z,13.02
2022-12-04T21:43:37.037Z,11.48
2022-12-04T21:46:09.424Z,11.95
2022-12-04T21:48:36.972Z,10.40
2022-12-04T21:51:21.232Z,9.63
2022-12-04T21:53:55.177Z,9.95
2022-12-04T21:56:22.974Z,10.38
2022-12-04T21:58:50.237Z,11.00
2022-12-04T22:01:18.523Z,10.15
2022-12-04T22:03:45.587Z,13.93
2022-12-04T22:06:12.930Z,11.43
2022-12-04T22:08:41.778Z,13.27
2022-12-04T22:11:11.397Z,11.80
2022-12-04T22:13:39.166Z,13.45
2022-12-04T22:16:08.787Z,11.47
2022-12-04T22:18:36.003Z,12.25
2022-12-04T22:21:09.369Z,9.73
2022-12-04T22:23:37.043Z,10.65
2022-12-04T22:26:12.633Z,10.57
2022-12-04T22:28:40.093Z,9.53
2022-12-04T22:31:10.025Z,9.73
2022-12-04T22:33:37.527Z,8.55
2022-12-04T22:36:07.302Z,7.60
2022-12-04T22:38:42.474Z,8.60
2022-12-04T22:41:21.162Z,7.00
2022-12-04T22:43:47.989Z,6.97
2022-12-04T22:46:16.081Z,5.90
2022-12-04T22:48:43.422Z,7.25
2022-12-04T22:51:13.841Z,7.40
2022-12-04T22:53:42.945Z,7.07
2022-12-04T22:56:15.926Z,6.97
2022-12-04T22:58:43.159Z,8.30
2022-12-04T23:01:17.959Z,8.35
2022-12-04T23:03:45.773Z,7.60
2022-12-04T23:06:13.620Z,8.50
2022-12-04T23:08:41.833Z,8.00
2022-12-04T23:11:13.861Z,10.23
2022-12-04T23:13:41.852Z,9.98
2022-12-04T23:16:11.560Z,7.13
2022-12-04T23:18:40.021Z,9.37
2022-12-04T23:21:09.819Z,12.60
2022-12-04T23:23:38.471Z,14.75
2022-12-04T23:26:07.096Z,11.50
2022-12-04T23:28:34.067Z,11.05
2022-12-04T23:31:01.876Z,13.00
2022-12-04T23:33:29.141Z,11.27
2022-12-04T23:35:58.074Z,13.05
2022-12-04T23:38:26.273Z,11.90
2022-12-04T23:41:22.087Z,13.30
2022-12-04T23:43:49.817Z,12.90
2022-12-04T23:46:19.578Z,12.30
2022-12-04T23:48:47.597Z,12.55
2022-12-04T23:51:16.738Z,10.68
2022-12-04T23:53:43.646Z,13.55
2022-12-04T23:56:36.501Z,14.23
2022-12-04T23:59:03.311Z,14.00
